Time;durP1;ratioP1;P1;durP2;ratioP2;P2;SDS_P1;SDS_P2;PMS_P1;PMS_P2;Temp;Humidity;BMP_temperature;BMP_pressure;BME280_temperature;BME280_humidity;BME280_pressure;Samples;Min_cycle;Max_cycle;Signal;HPM_P1;HPM_P2
2023/03/18 00:02:11;;;;;;;;;;;;;;;;;;5028668;28;20552;-45
2023/03/18 00:04:37;;;;;;;;;;;;;;;;;;5029453;28;19913;-45
2023/03/18 00:07:02;;;;;;;;;;;;;;;;;;5028746;28;20581;-44
2023/03/18 00:09:28;;;;;;;;;;;;;;;;;;5028966;28;19921;-48
2023/03/18 00:11:55;;;;;;;;;;;;;;;;;;5028647;28;19925;-44
2023/03/18 00:14:21;;;;;;;;;;;;;;;;;;5028135;28;20351;-44
2023/03/18 00:16:48;;;;;;;;;;;;;;;;;;5016874;28;20465;-46
2023/03/18 00:19:14;;;;;;;;;;;;;;;;;;5008838;28;19921;-43
2023/03/18 00:21:39;;;;;;;;;;;;;;;;;;5008929;28;19909;-44
2023/03/18 00:24:05;;;;;;;;;;;;;;;;;;5009344;28;19910;-44
2023/03/18 00:26:31;;;;;;;;;;;;;;;;;;5028378;28;19927;-43
2023/03/18 00:28:57;;;;;;;;;;;;;;;;;;5028770;28;20008;-43
2023/03/18 00:31:23;;;;;;;;;;;;;;;;;;5028579;28;20378;-44
2023/03/18 00:33:49;;;;;;;;;;;;;;;;;;5028990;28;19917;-43
2023/03/18 00:36:15;;;;;;;;;;;;;;;;;;5028833;28;19909;-44
2023/03/18 00:38:41;;;;;;;;;;;;;;;;;;5028912;28;19909;-44
2023/03/18 00:41:10;;;;;;;;;;;;;;;;;;5028670;28;19909;-44
2023/03/18 00:43:44;;;;;;;;;;;;;;;;;;5027234;28;19960;-43
2023/03/18 00:46:10;;;;;;;;;;;;;;;;;;5028449;28;19909;-44
2023/03/18 00:48:37;;;;;;;;;;;;;;;;;;5028639;28;19917;-43
2023/03/18 00:51:03;;;;;;;;;;;;;;;;;;5029153;28;19909;-43
2023/03/18 00:53:29;;;;;;;;;;;;;;;;;;5028734;28;19929;-43
2023/03/18 00:55:55;;;;;;;;;;;;;;;;;;5028459;28;19962;-43
2023/03/18 00:58:21;;;;;;;;;;;;;;;;;;5028801;28;20289;-43
2023/03/18 01:00:47;;;;;;;;;;;;;;;;;;5028635;28;19909;-43
2023/03/18 01:03:13;;;;;;;;;;;;;;;;;;5028455;28;19917;-43
2023/03/18 01:05:39;;;;;;;;;;;;;;;;;;5028572;28;19917;-44
2023/03/18 01:08:05;;;;;;;;;;;;;;;;;;5028660;28;19920;-44
2023/03/18 01:10:31;;;;;;;;;;;;;;;;;;5028126;28;19913;-43
2023/03/18 01:12:56;;;;;;;;;;;;;;;;;;5029105;28;20412;-44
2023/03/18 01:15:22;;;;;;;;;;;;;;;;;;5028332;28;19909;-44
2023/03/18 01:17:49;;;;;;;;;;;;;;;;;;5028492;28;19913;-43
2023/03/18 01:20:15;;;;;;;;;;;;;;;;;;5028581;28;19920;-43
2023/03/18 01:22:41;;;;;;;;;;;;;;;;;;5028534;28;19913;-47
2023/03/18 01:25:08;;;;;;;;;;;;;;;;;;5028426;28;20004;-48
2023/03/18 01:27:34;;;;;;;;;;;;;;;;;;5031059;28;19961;-47
2023/03/18 01:30:00;;;;;;;;;;;;;;;;;;5031858;28;19944;-47
2023/03/18 01:32:26;;;;;;;;;;;;;;;;;;5031748;28;20660;-49
2023/03/18 01:34:52;;;;;;;;;;;;;;;;;;5032187;28;19920;-48
2023/03/18 01:37:18;;;;;;;;;;;;;;;;;;5031359;28;20450;-48
2023/03/18 01:39:44;;;;;;;;;;;;;;;;;;5031485;28;19924;-49
2023/03/18 01:42:10;;;;;;;;;;;;;;;;;;5031417;28;19917;-50
2023/03/18 01:44:36;;;;;;;;;;;;;;;;;;5031406;28;20020;-47
2023/03/18 01:47:02;;;;;;;;;;;;;;;;;;5031488;28;20367;-48
2023/03/18 01:49:28;;;;;;;;;;;;;;;;;;5031721;28;19909;-47
2023/03/18 01:51:55;;;;;;;;;;;;;;;;;;5031298;28;20749;-47
2023/03/18 01:54:21;;;;;;;;;;;;;;;;;;5030997;28;19913;-47
2023/03/18 01:56:47;;;;;;;;;;;;;;;;;;5031214;28;19913;-46
2023/03/18 01:59:12;;;;;;;;;;;;;;;;;;5031502;28;19917;-46
2023/03/18 02:01:38;;;;;;;;;;;;;;;;;;5031672;28;20004;-47
2023/03/18 02:04:04;;;;;;;;;;;;;;;;;;5030954;28;20420;-48
2023/03/18 02:06:30;;;;;;;;;;;;;;;;;;5030992;28;19913;-49
2023/03/18 02:08:56;;;;;;;;;;;;;;;;;;5030696;28;19932;-49
2023/03/18 02:11:22;;;;;;;;;;;;;;;;;;5030715;28;20577;-48
2023/03/18 02:13:48;;;;;;;;;;;;;;;;;;5030837;28;20003;-47
2023/03/18 02:16:14;;;;;;;;;;;;;;;;;;5030616;28;19928;-48
2023/03/18 02:18:41;;;;;;;;;;;;;;;;;;5029588;28;20409;-47
2023/03/18 02:21:07;;;;;;;;;;;;;;;;;;5030678;28;19909;-47
2023/03/18 02:23:33;;;;;;;;;;;;;;;;;;5030304;28;19916;-48
2023/03/18 02:25:59;;;;;;;;;;;;;;;;;;5030262;28;19963;-47
2023/03/18 02:28:25;;;;;;;;;;;;;;;;;;5030727;28;19979;-47
2023/03/18 02:30:51;;;;;;;;;;;;;;;;;;5030624;28;19912;-48
2023/03/18 02:33:17;;;;;;;;;;;;;;;;;;5030672;28;19917;-48
2023/03/18 02:35:43;;;;;;;;;;;;;;;;;;5030575;28;19909;-49
2023/03/18 02:38:08;;;;;;;;;;;;;;;;;;5030096;28;19950;-47
2023/03/18 02:40:34;;;;;;;;;;;;;;;;;;5030370;28;19913;-51
2023/03/18 02:43:01;;;;;;;;;;;;;;;;;;5030676;28;19913;-48
2023/03/18 02:45:26;;;;;;;;;;;;;;;;;;5030316;28;19917;-50
2023/03/18 02:47:52;;;;;;;;;;;;;;;;;;5030468;28;19955;-46
2023/03/18 02:50:20;;;;;;;;;;;;;;;;;;5030498;28;19909;-47
2023/03/18 02:52:46;;;;;;;;;;;;;;;;;;5030410;28;19919;-48
2023/03/18 02:55:12;;;;;;;;;;;;;;;;;;5030116;28;20380;-47
2023/03/18 02:57:38;;;;;;;;;;;;;;;;;;5030054;28;20297;-49
2023/03/18 03:00:04;;;;;;;;;;;;;;;;;;5029929;28;20377;-49
2023/03/18 03:02:30;;;;;;;;;;;;;;;;;;5029620;28;19913;-50
2023/03/18 03:04:56;;;;;;;;;;;;;;;;;;5029742;28;19920;-47
2023/03/18 03:07:22;;;;;;;;;;;;;;;;;;5029849;28;19920;-50
2023/03/18 03:09:48;;;;;;;;;;;;;;;;;;5030055;28;20030;-49
2023/03/18 03:12:14;;;;;;;;;;;;;;;;;;5030161;28;20278;-47
2023/03/18 03:14:40;;;;;;;;;;;;;;;;;;5030243;28;19932;-49
2023/03/18 03:17:06;;;;;;;;;;;;;;;;;;5029502;28;20028;-47
2023/03/18 03:19:32;;;;;;;;;;;;;;;;;;5029428;28;20389;-46
2023/03/18 03:21:59;;;;;;;;;;;;;;;;;;5029703;28;19919;-49
2023/03/18 03:24:25;;;;;;;;;;;;;;;;;;5029450;28;19909;-47
2023/03/18 03:26:51;;;;;;;;;;;;;;;;;;5029417;28;19925;-47
2023/03/18 03:29:17;;;;;;;;;;;;;;;;;;5029432;28;19913;-47
2023/03/18 03:31:43;;;;;;;;;;;;;;;;;;5029242;28;20423;-48
2023/03/18 03:34:09;;;;;;;;;;;;;;;;;;5029233;28;19917;-48
2023/03/18 03:36:37;;;;;;;;;;;;;;;;;;5028823;28;20394;-47
2023/03/18 03:39:03;;;;;;;;;;;;;;;;;;5029163;28;19980;-50
2023/03/18 03:41:29;;;;;;;;;;;;;;;;;;5029078;28;19924;-47
2023/03/18 03:43:54;;;;;;;;;;;;;;;;;;5029288;28;20286;-49
2023/03/18 03:46:20;;;;;;;;;;;;;;;;;;5029289;28;19913;-49
2023/03/18 03:48:46;;;;;;;;;;;;;;;;;;5028247;28;19913;-50
2023/03/18 03:51:13;;;;;;;;;;;;;;;;;;5028823;28;19967;-48
2023/03/18 03:53:39;;;;;;;;;;;;;;;;;;5029261;28;19921;-47
2023/03/18 03:56:07;;;;;;;;;;;;;;;;;;5028774;28;19999;-47
2023/03/18 03:58:33;;;;;;;;;;;;;;;;;;5028598;28;19964;-47
2023/03/18 04:00:59;;;;;;;;;;;;;;;;;;5029208;28;19948;-48
2023/03/18 04:03:25;;;;;;;;;;;;;;;;;;5028418;28;19913;-49
2023/03/18 04:05:51;;;;;;;;;;;;;;;;;;5029188;28;19920;-50
2023/03/18 04:08:17;;;;;;;;;;;;;;;;;;5028359;28;19909;-49
2023/03/18 04:10:43;;;;;;;;;;;;;;;;;;5029006;28;20370;-49
2023/03/18 04:13:09;;;;;;;;;;;;;;;;;;5028613;28;19921;-47
2023/03/18 04:15:35;;;;;;;;;;;;;;;;;;5028372;28;19967;-48
2023/03/18 04:18:05;;;;;;;;;;;;;;;;;;5028214;28;19914;-50
2023/03/18 04:20:32;;;;;;;;;;;;;;;;;;5028567;28;19913;-51
2023/03/18 04:22:58;;;;;;;;;;;;;;;;;;5028554;28;19919;-49
2023/03/18 04:25:25;;;;;;;;;;;;;;;;;;5028625;28;19909;-47
2023/03/18 04:27:51;;;;;;;;;;;;;;;;;;5028516;28;19983;-48
2023/03/18 04:30:19;;;;;;;;;;;;;;;;;;5028718;28;19948;-46
2023/03/18 04:32:45;;;;;;;;;;;;;;;;;;5028234;28;20277;-47
2023/03/18 04:35:10;;;;;;;;;;;;;;;;;;5029217;28;19928;-47
2023/03/18 04:37:37;;;;;;;;;;;;;;;;;;5028693;28;19967;-47
2023/03/18 04:40:04;;;;;;;;;;;;;;;;;;5028718;28;19913;-48
2023/03/18 04:42:30;;;;;;;;;;;;;;;;;;5028842;28;19913;-46
2023/03/18 04:44:56;;;;;;;;;;;;;;;;;;5028708;28;19909;-46
2023/03/18 04:47:22;;;;;;;;;;;;;;;;;;5028601;28;19928;-48
2023/03/18 04:49:48;;;;;;;;;;;;;;;;;;5028334;28;19909;-49
2023/03/18 04:52:15;;;;;;;;;;;;;;;;;;5028852;28;19909;-47
2023/03/18 04:54:41;;;;;;;;;;;;;;;;;;5028338;28;19917;-47
2023/03/18 04:57:07;;;;;;;;;;;;;;;;;;5028462;28;19921;-48
2023/03/18 04:59:33;;;;;;;;;;;;;;;;;;5028826;28;20313;-48
2023/03/18 05:01:59;;;;;;;;;;;;;;;;;;5030248;28;19968;-49
2023/03/18 05:04:25;;;;;;;;;;;;;;;;;;5032472;28;19916;-47
2023/03/18 05:06:51;;;;;;;;;;;;;;;;;;5032532;28;19917;-48
2023/03/18 05:09:17;;;;;;;;;;;;;;;;;;5032238;28;19947;-47
2023/03/18 05:11:43;;;;;;;;;;;;;;;;;;5032204;28;19999;-47
2023/03/18 05:14:09;;;;;;;;;;;;;;;;;;5031993;28;20015;-46
2023/03/18 05:16:35;;;;;;;;;;;;;;;;;;5031636;28;20528;-48
2023/03/18 05:19:01;;;;;;;;;;;;;;;;;;5032658;28;20043;-50
2023/03/18 05:21:27;;;;;;;;;;;;;;;;;;5032019;28;19996;-47
2023/03/18 05:23:53;;;;;;;;;;;;;;;;;;5032376;28;20567;-49
2023/03/18 05:26:19;;;;;;;;;;;;;;;;;;5031737;28;19917;-47
2023/03/18 05:28:45;;;;;;;;;;;;;;;;;;5031717;28;19909;-49
2023/03/18 05:31:11;;;;;;;;;;;;;;;;;;5031661;28;20416;-48
2023/03/18 05:33:37;;;;;;;;;;;;;;;;;;5031010;28;19917;-47
2023/03/18 05:36:03;;;;;;;;;;;;;;;;;;5031873;28;20297;-48
2023/03/18 05:38:29;;;;;;;;;;;;;;;;;;5032147;28;19948;-47
2023/03/18 05:40:55;;;;;;;;;;;;;;;;;;5032441;28;20294;-46
2023/03/18 05:43:22;;;;;;;;;;;;;;;;;;5031843;28;20000;-47
2023/03/18 05:45:48;;;;;;;;;;;;;;;;;;5031800;28;19917;-48
2023/03/18 05:48:15;;;;;;;;;;;;;;;;;;5031612;28;19909;-48
2023/03/18 05:50:40;;;;;;;;;;;;;;;;;;5031340;28;20585;-46
2023/03/18 05:53:06;;;;;;;;;;;;;;;;;;5031414;28;19920;-48
2023/03/18 05:55:32;;;;;;;;;;;;;;;;;;5031658;28;19913;-46
2023/03/18 05:57:59;;;;;;;;;;;;;;;;;;5031568;28;19917;-48
2023/03/18 06:00:25;;;;;;;;;;;;;;;;;;5031006;28;19913;-47
2023/03/18 06:02:54;;;;;;;;;;;;;;;;;;5031244;28;20307;-48
2023/03/18 06:05:20;;;;;;;;;;;;;;;;;;5031670;28;20404;-48
2023/03/18 06:07:45;;;;;;;;;;;;;;;;;;5031010;28;20006;-47
2023/03/18 06:10:11;;;;;;;;;;;;;;;;;;5030951;28;20270;-49
2023/03/18 06:12:37;;;;;;;;;;;;;;;;;;5030575;28;20000;-50
2023/03/18 06:15:03;;;;;;;;;;;;;;;;;;5030988;28;20325;-49
2023/03/18 06:17:30;;;;;;;;;;;;;;;;;;5030971;28;20270;-51
2023/03/18 06:19:56;;;;;;;;;;;;;;;;;;5030669;28;19913;-49
2023/03/18 06:22:22;;;;;;;;;;;;;;;;;;5031085;28;19920;-48
2023/03/18 06:24:47;;;;;;;;;;;;;;;;;;5030995;28;20316;-48
2023/03/18 06:27:14;;;;;;;;;;;;;;;;;;5030515;28;20052;-47
2023/03/18 06:29:40;;;;;;;;;;;;;;;;;;5030525;28;19913;-47
2023/03/18 06:32:07;;;;;;;;;;;;;;;;;;5031078;28;19913;-47
2023/03/18 06:34:34;;;;;;;;;;;;;;;;;;5030908;28;20003;-49
2023/03/18 06:37:00;;;;;;;;;;;;;;;;;;5030668;28;19913;-48
2023/03/18 06:39:27;;;;;;;;;;;;;;;;;;5030961;28;19916;-47
2023/03/18 06:41:53;;;;;;;;;;;;;;;;;;5030616;28;19913;-50
2023/03/18 06:44:19;;;;;;;;;;;;;;;;;;5030438;28;19917;-49
2023/03/18 06:46:45;;;;;;;;;;;;;;;;;;5030843;28;19988;-48
2023/03/18 06:49:11;;;;;;;;;;;;;;;;;;5030665;28;19913;-48
2023/03/18 06:51:37;;;;;;;;;;;;;;;;;;5030161;28;19909;-49
2023/03/18 06:54:04;;;;;;;;;;;;;;;;;;5029912;28;19917;-47
2023/03/18 06:56:32;;;;;;;;;;;;;;;;;;5030432;28;19909;-48
2023/03/18 06:58:59;;;;;;;;;;;;;;;;;;5029891;28;19928;-47
2023/03/18 07:01:25;;;;;;;;;;;;;;;;;;5030169;28;19913;-47
2023/03/18 07:03:51;;;;;;;;;;;;;;;;;;5029885;28;19913;-47
2023/03/18 07:06:17;;;;;;;;;;;;;;;;;;5029894;28;19914;-48
2023/03/18 07:08:44;;;;;;;;;;;;;;;;;;5028707;28;20344;-48
2023/03/18 07:11:09;;;;;;;;;;;;;;;;;;5029704;28;20405;-47
2023/03/18 07:13:35;;;;;;;;;;;;;;;;;;5029420;28;19913;-50
2023/03/18 07:16:02;;;;;;;;;;;;;;;;;;5027896;28;20492;-47
2023/03/18 07:18:28;;;;;;;;;;;;;;;;;;5030006;28;19990;-49
2023/03/18 07:20:54;;;;;;;;;;;;;;;;;;5029546;28;19913;-47
2023/03/18 07:23:20;;;;;;;;;;;;;;;;;;5029261;28;20384;-48
2023/03/18 07:25:46;;;;;;;;;;;;;;;;;;5029223;28;19909;-46
2023/03/18 07:28:12;;;;;;;;;;;;;;;;;;5027546;28;19921;-49
2023/03/18 07:30:38;;;;;;;;;;;;;;;;;;5027958;28;19913;-49
2023/03/18 07:33:04;;;;;;;;;;;;;;;;;;5029620;28;20011;-51
2023/03/18 07:35:30;;;;;;;;;;;;;;;;;;5029398;28;19913;-46
2023/03/18 07:37:56;;;;;;;;;;;;;;;;;;5029320;28;19952;-48
2023/03/18 07:40:22;;;;;;;;;;;;;;;;;;5029399;28;19909;-47
2023/03/18 07:42:50;;;;;;;;;;;;;;;;;;5029044;28;19920;-49
2023/03/18 07:45:16;;;;;;;;;;;;;;;;;;5027574;28;19952;-47
2023/03/18 07:47:42;;;;;;;;;;;;;;;;;;5029358;28;20344;-48
2023/03/18 07:50:08;;;;;;;;;;;;;;;;;;5029624;28;19910;-49
2023/03/18 07:52:34;;;;;;;;;;;;;;;;;;5029189;28;19920;-49
2023/03/18 07:55:00;;;;;;;;;;;;;;;;;;5029358;28;20004;-48
2023/03/18 07:57:26;;;;;;;;;;;;;;;;;;5029094;28;19909;-47
2023/03/18 07:59:52;;;;;;;;;;;;;;;;;;5029078;28;19967;-47
2023/03/18 08:02:19;;;;;;;;;;;;;;;;;;5028828;28;20392;-47
2023/03/18 08:04:45;;;;;;;;;;;;;;;;;;5028765;28;19992;-50
2023/03/18 08:07:11;;;;;;;;;;;;;;;;;;5028633;28;19913;-47
2023/03/18 08:09:37;;;;;;;;;;;;;;;;;;5028686;28;19913;-46
2023/03/18 08:12:03;;;;;;;;;;;;;;;;;;5029172;28;19920;-47
2023/03/18 08:14:30;;;;;;;;;;;;;;;;;;5028445;28;19925;-46
2023/03/18 08:16:56;;;;;;;;;;;;;;;;;;5028568;28;19913;-47
2023/03/18 08:19:22;;;;;;;;;;;;;;;;;;5029298;28;19914;-46
2023/03/18 08:21:47;;;;;;;;;;;;;;;;;;5029087;28;19916;-46
2023/03/18 08:24:13;;;;;;;;;;;;;;;;;;5028136;28;19909;-47
2023/03/18 08:26:39;;;;;;;;;;;;;;;;;;5028430;28;19925;-49
2023/03/18 08:29:05;;;;;;;;;;;;;;;;;;5028516;28;19920;-46
2023/03/18 08:31:31;;;;;;;;;;;;;;;;;;5028954;28;20000;-48
2023/03/18 08:33:58;;;;;;;;;;;;;;;;;;5028687;28;20451;-47
2023/03/18 08:36:24;;;;;;;;;;;;;;;;;;5033303;28;19913;-47
2023/03/18 08:38:50;;;;;;;;;;;;;;;;;;5034349;28;19920;-46
2023/03/18 08:41:16;;;;;;;;;;;;;;;;;;5035257;28;19913;-46
2023/03/18 08:43:42;;;;;;;;;;;;;;;;;;5034928;28;20340;-46
2023/03/18 08:46:09;;;;;;;;;;;;;;;;;;5035583;28;19910;-48
2023/03/18 08:48:35;;;;;;;;;;;;;;;;;;5034935;28;19917;-50
2023/03/18 08:51:01;;;;;;;;;;;;;;;;;;5034879;28;19970;-49
2023/03/18 08:53:27;;;;;;;;;;;;;;;;;;5034779;28;20392;-50
2023/03/18 08:55:52;;;;;;;;;;;;;;;;;;5034825;28;20027;-50
2023/03/18 08:58:18;;;;;;;;;;;;;;;;;;5034731;28;20331;-52
2023/03/18 09:00:44;;;;;;;;;;;;;;;;;;5035137;28;19913;-49
2023/03/18 09:03:10;;;;;;;;;;;;;;;;;;5034659;28;20396;-50
2023/03/18 09:05:37;;;;;;;;;;;;;;;;;;5034714;28;19914;-51
2023/03/18 09:08:04;;;;;;;;;;;;;;;;;;5034900;28;20396;-50
2023/03/18 09:10:29;;;;;;;;;;;;;;;;;;5034830;28;19920;-51
2023/03/18 09:12:56;;;;;;;;;;;;;;;;;;5033406;28;19924;-50
2023/03/18 09:15:22;;;;;;;;;;;;;;;;;;5034257;28;19916;-50
2023/03/18 09:17:48;;;;;;;;;;;;;;;;;;5034584;28;20344;-51
2023/03/18 09:20:14;;;;;;;;;;;;;;;;;;5034623;28;19920;-48
2023/03/18 09:22:39;;;;;;;;;;;;;;;;;;5034324;28;20630;-50
2023/03/18 09:25:05;;;;;;;;;;;;;;;;;;5034730;28;19909;-50
2023/03/18 09:32:43;;;;;;;;;;;;;;;;;;5183513;23;20401;-67
2023/03/18 09:35:09;;;;;;;;;;;;;;;;;;5010657;28;19922;-66
2023/03/18 09:37:35;;;;;;;;;;;;;;;;;;4994316;28;20412;-66
2023/03/18 09:40:01;;;;;;;;;;;;;;;;;;5008257;28;20662;-66
2023/03/18 09:42:27;;;;;;;;;;;;;;;;;;5015400;28;19913;-64
2023/03/18 09:44:53;;;;;;;;;;;;;;;;;;5001848;28;19913;-67
2023/03/18 09:47:20;;;;;;;;;;;;;;;;;;5000733;28;19921;-66
2023/03/18 09:49:46;;;;;;;;;;;;;;;;;;5011989;28;19909;-65
2023/03/18 09:52:12;;;;;;;;;;;;;;;;;;5012258;28;19932;-67
2023/03/18 09:54:39;;;;;;;;;;;;;;;;;;5011747;28;20000;-66
2023/03/18 09:57:05;;;;;;;;;;;;;;;;;;5012221;28;20428;-66
2023/03/18 09:59:31;;;;;;;;;;;;;;;;;;5012498;28;19941;-66
2023/03/18 10:01:57;;;;;;;;;;;;;;;;;;5012130;28;20011;-66
2023/03/18 10:04:23;;;;;;;;;;;;;;;;;;5011556;28;19920;-66
2023/03/18 10:06:49;;;;;;;;;;;;;;;;;;5012036;28;19910;-66
2023/03/18 10:09:15;;;;;;;;;;;;;;;;;;5012065;28;19945;-66
2023/03/18 10:11:41;;;;;;;;;;;;;;;;;;5011956;28;19910;-66
2023/03/18 10:14:07;;;;;;;;;;;;;;;;;;5011699;28;19924;-66
2023/03/18 10:16:33;;;;;;;;;;;;;;;;;;5011536;28;19910;-66
2023/03/18 10:18:59;;;;;;;;;;;;;;;;;;5011894;28;19914;-66
2023/03/18 10:21:26;;;;;;;;;;;;;;;;;;5011509;28;20051;-66
2023/03/18 10:23:52;;;;;;;;;;;;;;;;;;5011593;28;19919;-66
2023/03/18 10:26:18;;;;;;;;;;;;;;;;;;5011828;28;19956;-66
2023/03/18 10:28:44;;;;;;;;;;;;;;;;;;5011294;28;19953;-66
2023/03/18 10:31:10;;;;;;;;;;;;;;;;;;5011554;28;19931;-66
2023/03/18 10:33:36;;;;;;;;;;;;;;;;;;5011354;28;19917;-65
2023/03/18 10:36:02;;;;;;;;;;;;;;;;;;5011672;28;19921;-66
2023/03/18 10:38:28;;;;;;;;;;;;;;;;;;5011222;28;19964;-66
2023/03/18 10:40:54;;;;;;;;;;;;;;;;;;5011248;28;19956;-66
2023/03/18 10:43:20;;;;;;;;;;;;;;;;;;5011009;28;19917;-66
2023/03/18 10:45:46;;;;;;;;;;;;;;;;;;5011295;28;20346;-66
2023/03/18 10:48:12;;;;;;;;;;;;;;;;;;4996406;28;19914;-65
2023/03/18 10:50:38;;;;;;;;;;;;;;;;;;4991538;28;19909;-64
2023/03/18 10:53:04;;;;;;;;;;;;;;;;;;4991214;28;19958;-64
2023/03/18 10:55:30;;;;;;;;;;;;;;;;;;5024708;28;19910;-65
2023/03/18 10:57:56;;;;;;;;;;;;;;;;;;5005858;28;19921;-64
2023/03/18 11:00:22;;;;;;;;;;;;;;;;;;4990230;28;19925;-64
2023/03/18 11:02:48;;;;;;;;;;;;;;;;;;4991426;28;19917;-64
2023/03/18 11:05:14;;;;;;;;;;;;;;;;;;4990816;28;19913;-66
2023/03/18 11:07:40;;;;;;;;;;;;;;;;;;5008430;28;20373;-64
2023/03/18 11:10:06;;;;;;;;;;;;;;;;;;5010226;28;20000;-64
2023/03/18 11:12:33;;;;;;;;;;;;;;;;;;5009890;28;19982;-65
2023/03/18 11:14:59;;;;;;;;;;;;;;;;;;5010525;28;19914;-64
2023/03/18 11:17:26;;;;;;;;;;;;;;;;;;5010296;28;19916;-65
2023/03/18 11:19:52;;;;;;;;;;;;;;;;;;5010569;28;19925;-65
2023/03/18 11:22:18;;;;;;;;;;;;;;;;;;5010341;28;19914;-64
2023/03/18 11:24:44;;;;;;;;;;;;;;;;;;5009248;28;19924;-64
2023/03/18 11:27:10;;;;;;;;;;;;;;;;;;5010293;28;19910;-65
2023/03/18 11:29:37;;;;;;;;;;;;;;;;;;5009847;28;19913;-65
2023/03/18 11:32:03;;;;;;;;;;;;;;;;;;5009059;28;20404;-65
2023/03/18 11:34:29;;;;;;;;;;;;;;;;;;5009870;28;20366;-65
2023/03/18 11:36:57;;;;;;;;;;;;;;;;;;5010004;28;19949;-64
2023/03/18 11:39:23;;;;;;;;;;;;;;;;;;5009919;28;20384;-65
2023/03/18 11:41:49;;;;;;;;;;;;;;;;;;5024604;28;20302;-64
2023/03/18 11:44:16;;;;;;;;;;;;;;;;;;5009521;28;19910;-65
2023/03/18 11:46:42;;;;;;;;;;;;;;;;;;5009734;28;19971;-65
2023/03/18 11:49:08;;;;;;;;;;;;;;;;;;5009544;28;19914;-65
2023/03/18 11:51:34;;;;;;;;;;;;;;;;;;5009520;28;20716;-66
2023/03/18 11:54:00;;;;;;;;;;;;;;;;;;5024580;28;19928;-66
2023/03/18 11:56:26;;;;;;;;;;;;;;;;;;5009405;28;19909;-65
2023/03/18 11:58:53;;;;;;;;;;;;;;;;;;5009831;28;20325;-64
2023/03/18 12:01:19;;;;;;;;;;;;;;;;;;5009390;28;19914;-65
2023/03/18 12:03:46;;;;;;;;;;;;;;;;;;5009587;28;19996;-64
2023/03/18 12:06:12;;;;;;;;;;;;;;;;;;5024821;28;19914;-65
2023/03/18 12:08:37;;;;;;;;;;;;;;;;;;5009754;28;19915;-65
2023/03/18 12:11:05;;;;;;;;;;;;;;;;;;5009203;28;19967;-65
2023/03/18 12:13:31;;;;;;;;;;;;;;;;;;5009259;28;19948;-66
2023/03/18 12:15:57;;;;;;;;;;;;;;;;;;5009424;28;19960;-65
2023/03/18 12:18:23;;;;;;;;;;;;;;;;;;5009241;28;19956;-65
2023/03/18 12:20:52;;;;;;;;;;;;;;;;;;5009098;28;20305;-65
2023/03/18 12:23:17;;;;;;;;;;;;;;;;;;5009339;28;19910;-65
2023/03/18 12:25:43;;;;;;;;;;;;;;;;;;5008682;28;20004;-65
2023/03/18 12:28:09;;;;;;;;;;;;;;;;;;5009009;28;19913;-65
2023/03/18 12:30:35;;;;;;;;;;;;;;;;;;5008936;28;19913;-64
2023/03/18 12:33:03;;;;;;;;;;;;;;;;;;5008737;28;19964;-65
2023/03/18 12:35:28;;;;;;;;;;;;;;;;;;5009290;28;19945;-66
2023/03/18 12:37:54;;;;;;;;;;;;;;;;;;5009908;28;19960;-65
2023/03/18 12:40:20;;;;;;;;;;;;;;;;;;5009104;28;20039;-66
2023/03/18 12:42:46;;;;;;;;;;;;;;;;;;5009865;28;19921;-66
2023/03/18 12:45:13;;;;;;;;;;;;;;;;;;5008426;28;19968;-66
2023/03/18 12:47:39;;;;;;;;;;;;;;;;;;5009391;28;19909;-66
2023/03/18 12:50:05;;;;;;;;;;;;;;;;;;4995821;28;19937;-66
2023/03/18 12:52:30;;;;;;;;;;;;;;;;;;4989688;28;19957;-66
2023/03/18 12:54:56;;;;;;;;;;;;;;;;;;4989169;28;19929;-65
2023/03/18 12:57:22;;;;;;;;;;;;;;;;;;4989239;28;19925;-66
2023/03/18 12:59:48;;;;;;;;;;;;;;;;;;4989605;28;20008;-67
2023/03/18 13:02:14;;;;;;;;;;;;;;;;;;4989795;28;19936;-66
2023/03/18 13:04:40;;;;;;;;;;;;;;;;;;4989345;28;19910;-66
2023/03/18 13:07:06;;;;;;;;;;;;;;;;;;4987945;28;19917;-66
2023/03/18 13:09:33;;;;;;;;;;;;;;;;;;4989076;28;20350;-66
2023/03/18 13:12:00;;;;;;;;;;;;;;;;;;4989871;28;19913;-65
2023/03/18 13:14:26;;;;;;;;;;;;;;;;;;4989073;28;19936;-66
2023/03/18 13:16:52;;;;;;;;;;;;;;;;;;4992736;28;20398;-66
2023/03/18 13:19:18;;;;;;;;;;;;;;;;;;5007547;28;19918;-66
2023/03/18 13:21:44;;;;;;;;;;;;;;;;;;5007725;28;19923;-65
2023/03/18 13:24:10;;;;;;;;;;;;;;;;;;5011050;28;19914;-65
2023/03/18 13:26:36;;;;;;;;;;;;;;;;;;5010355;28;19914;-65
2023/03/18 13:29:03;;;;;;;;;;;;;;;;;;5012372;28;19921;-67
2023/03/18 13:31:29;;;;;;;;;;;;;;;;;;5012295;28;20323;-66
2023/03/18 13:33:55;;;;;;;;;;;;;;;;;;5012345;28;20464;-66
2023/03/18 13:36:21;;;;;;;;;;;;;;;;;;5012583;28;19997;-66
2023/03/18 13:38:47;;;;;;;;;;;;;;;;;;5011716;28;20377;-66
2023/03/18 13:41:13;;;;;;;;;;;;;;;;;;5012044;28;19925;-67
2023/03/18 13:43:38;;;;;;;;;;;;;;;;;;5012163;28;19920;-66
2023/03/18 13:46:04;;;;;;;;;;;;;;;;;;5012447;28;19976;-66
2023/03/18 13:48:32;;;;;;;;;;;;;;;;;;5011796;28;20457;-66
2023/03/18 13:50:58;;;;;;;;;;;;;;;;;;5012168;28;19914;-65
2023/03/18 13:53:24;;;;;;;;;;;;;;;;;;5011535;28;19928;-66
2023/03/18 13:55:50;;;;;;;;;;;;;;;;;;5011817;28;19913;-66
2023/03/18 13:58:16;;;;;;;;;;;;;;;;;;5012337;28;19910;-66
2023/03/18 14:00:42;;;;;;;;;;;;;;;;;;5012367;28;19909;-66
2023/03/18 14:03:08;;;;;;;;;;;;;;;;;;5011711;28;20016;-65
2023/03/18 14:05:34;;;;;;;;;;;;;;;;;;5011858;28;19905;-67
2023/03/18 14:08:00;;;;;;;;;;;;;;;;;;5012019;28;20016;-65
2023/03/18 14:10:26;;;;;;;;;;;;;;;;;;5011849;28;20027;-66
2023/03/18 14:12:52;;;;;;;;;;;;;;;;;;5012219;28;20770;-66
2023/03/18 14:15:18;;;;;;;;;;;;;;;;;;5011594;28;19922;-66
2023/03/18 14:17:46;;;;;;;;;;;;;;;;;;5011778;28;19909;-67
2023/03/18 14:20:12;;;;;;;;;;;;;;;;;;5010051;28;19913;-66
2023/03/18 14:22:38;;;;;;;;;;;;;;;;;;5011680;28;19983;-66
2023/03/18 14:25:04;;;;;;;;;;;;;;;;;;5009897;28;20007;-66
2023/03/18 14:27:30;;;;;;;;;;;;;;;;;;5011041;28;19979;-66
2023/03/18 14:29:56;;;;;;;;;;;;;;;;;;5011599;28;20305;-66
2023/03/18 14:32:22;;;;;;;;;;;;;;;;;;5011039;28;19964;-66
2023/03/18 14:34:48;;;;;;;;;;;;;;;;;;5009914;28;20440;-66
2023/03/18 14:37:15;;;;;;;;;;;;;;;;;;5011414;28;19917;-67
2023/03/18 14:39:41;;;;;;;;;;;;;;;;;;5011427;28;20283;-67
2023/03/18 14:42:07;;;;;;;;;;;;;;;;;;5011450;28;19990;-66
2023/03/18 14:44:33;;;;;;;;;;;;;;;;;;5011174;28;20008;-66
2023/03/18 14:46:59;;;;;;;;;;;;;;;;;;5010820;28;20012;-65
2023/03/18 14:49:25;;;;;;;;;;;;;;;;;;5011393;28;19913;-66
2023/03/18 14:51:51;;;;;;;;;;;;;;;;;;5011063;28;19909;-65
2023/03/18 14:54:16;;;;;;;;;;;;;;;;;;5011217;28;20636;-65
2023/03/18 14:56:43;;;;;;;;;;;;;;;;;;5010743;28;20012;-65
2023/03/18 14:59:09;;;;;;;;;;;;;;;;;;5011137;28;20452;-65
2023/03/18 15:01:35;;;;;;;;;;;;;;;;;;5011170;28;19913;-64
2023/03/18 15:04:01;;;;;;;;;;;;;;;;;;5011083;28;19913;-64
2023/03/18 15:06:27;;;;;;;;;;;;;;;;;;5011009;28;20392;-65
2023/03/18 15:08:53;;;;;;;;;;;;;;;;;;5010780;28;19960;-65
2023/03/18 15:11:19;;;;;;;;;;;;;;;;;;5010749;28;19971;-65
2023/03/18 15:13:45;;;;;;;;;;;;;;;;;;5010867;28;19913;-66
2023/03/18 15:16:12;;;;;;;;;;;;;;;;;;5008585;28;19956;-66
2023/03/18 15:18:38;;;;;;;;;;;;;;;;;;5010375;28;20580;-65
2023/03/18 15:21:04;;;;;;;;;;;;;;;;;;5010568;28;19913;-65
2023/03/18 15:23:30;;;;;;;;;;;;;;;;;;5009399;28;20278;-65
2023/03/18 15:25:56;;;;;;;;;;;;;;;;;;5010267;28;20484;-65
2023/03/18 15:28:25;;;;;;;;;;;;;;;;;;5010236;28;19960;-65
2023/03/18 15:30:53;;;;;;;;;;;;;;;;;;5009851;28;20382;-64
2023/03/18 15:33:19;;;;;;;;;;;;;;;;;;5009931;28;19921;-66
2023/03/18 15:35:46;;;;;;;;;;;;;;;;;;5009808;28;20012;-64
2023/03/18 15:38:12;;;;;;;;;;;;;;;;;;5010052;28;19914;-64
2023/03/18 15:40:38;;;;;;;;;;;;;;;;;;5009884;28;19913;-64
2023/03/18 15:43:04;;;;;;;;;;;;;;;;;;5009944;28;20892;-64
2023/03/18 15:45:29;;;;;;;;;;;;;;;;;;5007934;28;19969;-64
2023/03/18 15:47:56;;;;;;;;;;;;;;;;;;5009336;28;19953;-64
2023/03/18 15:50:22;;;;;;;;;;;;;;;;;;5008156;28;19909;-64
2023/03/18 15:52:48;;;;;;;;;;;;;;;;;;5009455;28;19913;-64
2023/03/18 15:55:14;;;;;;;;;;;;;;;;;;5009591;28;19928;-65
2023/03/18 15:57:40;;;;;;;;;;;;;;;;;;5008071;28;20591;-65
2023/03/18 16:00:08;;;;;;;;;;;;;;;;;;5009075;28;19914;-65
2023/03/18 16:02:34;;;;;;;;;;;;;;;;;;5008807;28;19913;-65
2023/03/18 16:05:00;;;;;;;;;;;;;;;;;;5009080;28;20016;-66
2023/03/18 16:07:28;;;;;;;;;;;;;;;;;;5008971;28;19999;-66
2023/03/18 16:09:54;;;;;;;;;;;;;;;;;;5009532;28;19972;-64
2023/03/18 16:12:20;;;;;;;;;;;;;;;;;;5008745;28;19913;-66
2023/03/18 16:14:46;;;;;;;;;;;;;;;;;;5009096;28;20615;-66
2023/03/18 16:17:12;;;;;;;;;;;;;;;;;;5008988;28;19914;-66
2023/03/18 16:19:38;;;;;;;;;;;;;;;;;;5009776;28;19941;-66
2023/03/18 16:22:05;;;;;;;;;;;;;;;;;;5008087;28;19913;-66
2023/03/18 16:24:30;;;;;;;;;;;;;;;;;;5008891;28;19940;-65
2023/03/18 16:26:56;;;;;;;;;;;;;;;;;;5008666;28;19964;-65
2023/03/18 16:29:22;;;;;;;;;;;;;;;;;;5008729;28;19913;-66
2023/03/18 16:31:48;;;;;;;;;;;;;;;;;;5008322;28;19940;-65
2023/03/18 16:34:14;;;;;;;;;;;;;;;;;;5008167;28;19968;-65
2023/03/18 16:36:41;;;;;;;;;;;;;;;;;;5008397;28;19913;-64
2023/03/18 16:39:07;;;;;;;;;;;;;;;;;;5008747;28;19941;-64
2023/03/18 16:41:33;;;;;;;;;;;;;;;;;;5008645;28;19910;-64
2023/03/18 16:44:00;;;;;;;;;;;;;;;;;;5009450;28;19913;-65